Time;durP1;ratioP1;P1;durP2;ratioP2;P2;SDS_P1;SDS_P2;PMS_P1;PMS_P2;Temp;Humidity;BMP_temperature;BMP_pressure;BME280_temperature;BME280_humidity;BME280_pressure;Samples;Min_cycle;Max_cycle;Signal;HPM_P1;HPM_P2
2022/10/02 07:48:07;;;;;;;7.87;4.17;;;;;;;;;;5620608;23;20263;-76
2022/10/02 07:50:42;;;;;;;9.53;4.10;;;;;;;;;;4992668;28;20205;-76
2022/10/02 07:53:37;;;;;;;8.23;3.77;;;;;;;;;;4994187;28;20207;-76
2022/10/02 07:56:04;;;;;;;11.00;4.80;;;;;;;;;;4993079;28;20183;-76
2022/10/02 07:58:51;;;;;;;7.50;4.30;;;;;;;;;;4980024;28;20195;-76
2022/10/02 08:01:22;;;;;;;9.30;4.37;;;;;;;;;;4966552;28;20625;-76
2022/10/02 08:03:52;;;;;;;8.87;4.30;;;;;;;;;;5016349;23;20233;-80
2022/10/02 08:06:18;;;;;;;10.63;5.17;;;;;;;;;;5014762;28;20175;-80
2022/10/02 08:08:44;;;;;;;10.47;4.97;;;;;;;;;;5014554;28;20178;-80
2022/10/02 08:11:14;;;;;;;12.50;5.40;;;;;;;;;;5013843;28;20167;-82
2022/10/02 08:13:47;;;;;;;11.80;6.73;;;;;;;;;;4996643;28;20208;-81
2022/10/02 08:16:14;;;;;;;9.17;4.90;;;;;;;;;;4995021;28;20642;-81
2022/10/02 08:18:48;;;;;;;11.17;4.60;;;;;;;;;;4993569;28;20180;-81
2022/10/02 08:21:19;;;;;;;8.73;3.47;;;;;;;;;;4993701;28;20178;-81
2022/10/02 08:23:58;;;;;;;8.17;3.60;;;;;;;;;;4993624;28;20290;-81
2022/10/02 08:26:34;;;;;;;8.20;3.80;;;;;;;;;;4991321;28;20195;-81
2022/10/02 08:29:04;;;;;;;6.57;3.90;;;;;;;;;;4993020;28;20190;-81
2022/10/02 08:31:31;;;;;;;8.57;4.63;;;;;;;;;;4993922;28;20182;-81
2022/10/02 08:33:58;;;;;;;4.93;4.00;;;;;;;;;;4995678;28;20226;-81
2022/10/02 08:36:39;;;;;;;7.83;4.50;;;;;;;;;;4978466;28;20210;-81
2022/10/02 08:39:08;;;;;;;4.57;3.33;;;;;;;;;;4993847;28;20176;-81
2022/10/02 08:41:40;;;;;;;6.57;3.97;;;;;;;;;;4994246;28;20190;-80
2022/10/02 08:44:21;;;;;;;6.40;3.37;;;;;;;;;;4993829;28;20198;-81
2022/10/02 08:47:08;;;;;;;5.03;3.17;;;;;;;;;;5000296;28;20232;-81
2022/10/02 08:49:40;;;;;;;6.50;3.03;;;;;;;;;;4994536;28;20218;-81
2022/10/02 08:52:24;;;;;;;9.03;3.80;;;;;;;;;;4993643;28;20253;-81
2022/10/02 08:54:50;;;;;;;5.70;3.43;;;;;;;;;;4993725;28;20542;-81
2022/10/02 08:57:19;;;;;;;4.70;3.33;;;;;;;;;;4993728;28;20263;-81
2022/10/02 09:00:04;;;;;;;5.43;2.70;;;;;;;;;;4994058;28;20180;-81
2022/10/02 09:02:50;;;;;;;5.60;3.37;;;;;;;;;;4992872;28;20215;-81
2022/10/02 09:05:38;;;;;;;5.63;2.90;;;;;;;;;;4993764;28;20634;-81
2022/10/02 09:08:07;;;;;;;5.93;3.00;;;;;;;;;;4994419;28;20191;-81
2022/10/02 09:10:51;;;;;;;6.93;3.20;;;;;;;;;;4993705;28;20190;-81
2022/10/02 09:13:41;;;;;;;7.87;4.57;;;;;;;;;;4993085;28;20215;-80
2022/10/02 09:16:25;;;;;;;4.83;2.90;;;;;;;;;;4992777;28;20172;-81
2022/10/02 09:18:59;;;;;;;6.40;4.40;;;;;;;;;;4993406;28;20180;-81
2022/10/02 09:21:43;;;;;;;5.23;4.30;;;;;;;;;;4991732;28;20214;-81
2022/10/02 09:24:28;;;;;;;5.57;2.50;;;;;;;;;;4993206;28;20186;-79
2022/10/02 09:27:10;;;;;;;5.07;2.83;;;;;;;;;;4993559;28;20190;-81
2022/10/02 09:29:48;;;;;;;4.33;2.63;;;;;;;;;;4973727;28;20266;-80
2022/10/02 09:32:27;;;;;;;5.77;2.73;;;;;;;;;;4973571;28;20215;-79
2022/10/02 09:35:12;;;;;;;5.20;3.10;;;;;;;;;;4973335;28;20176;-81
2022/10/02 09:37:50;;;;;;;6.47;3.97;;;;;;;;;;4973134;28;20187;-79
2022/10/02 09:40:54;;;;;;;5.30;2.53;;;;;;;;;;4982650;28;20168;-80
2022/10/02 09:43:36;;;;;;;6.67;3.50;;;;;;;;;;4988714;28;20234;-80
2022/10/02 09:46:21;;;;;;;5.23;3.60;;;;;;;;;;4996235;28;20175;-79
2022/10/02 09:49:07;;;;;;;4.77;3.00;;;;;;;;;;4992376;28;20187;-79
2022/10/02 09:51:48;;;;;;;6.37;3.70;;;;;;;;;;4996075;28;20183;-79
2022/10/02 09:54:20;;;;;;;3.53;2.53;;;;;;;;;;4997069;28;20176;-81
2022/10/02 09:56:46;;;;;;;4.67;2.90;;;;;;;;;;4992956;28;20179;-82
2022/10/02 09:59:12;;;;;;;4.47;2.53;;;;;;;;;;4993712;28;20215;-81
2022/10/02 10:01:38;;;;;;;4.80;2.50;;;;;;;;;;4992239;28;20234;-80
2022/10/02 10:04:27;;;;;;;3.83;2.10;;;;;;;;;;4992351;28;20187;-79
2022/10/02 10:07:05;;;;;;;3.40;2.50;;;;;;;;;;4990238;28;20183;-82
2022/10/02 10:09:48;;;;;;;5.53;4.13;;;;;;;;;;4993045;28;20654;-80
2022/10/02 10:12:33;;;;;;;4.17;3.20;;;;;;;;;;4991999;28;20211;-80
2022/10/02 10:14:59;;;;;;;4.53;3.40;;;;;;;;;;4996539;28;20249;-81
2022/10/02 10:17:44;;;;;;;3.83;2.73;;;;;;;;;;4996708;28;20184;-82
2022/10/02 10:20:11;;;;;;;5.17;3.63;;;;;;;;;;4995185;28;20704;-82
2022/10/02 10:23:01;;;;;;;4.63;3.47;;;;;;;;;;4994706;28;20207;-82
2022/10/02 10:25:36;;;;;;;4.53;4.10;;;;;;;;;;4994927;28;20184;-81
2022/10/02 10:28:17;;;;;;;7.07;3.93;;;;;;;;;;4995969;28;20551;-82
2022/10/02 10:31:15;;;;;;;4.20;3.00;;;;;;;;;;4996103;28;20210;-82
2022/10/02 10:33:44;;;;;;;6.07;3.60;;;;;;;;;;4995247;28;20303;-82
2022/10/02 10:39:31;;;;;;;3.03;1.80;;;;;;;;;;4996549;28;20206;-82
2022/10/02 10:42:04;;;;;;;4.03;1.90;;;;;;;;;;4992782;28;20642;-83
2022/10/02 10:44:53;;;;;;;3.23;2.67;;;;;;;;;;4995016;28;20635;-82
2022/10/02 10:47:33;;;;;;;2.60;2.17;;;;;;;;;;4999086;28;20230;-83
2022/10/02 10:50:02;;;;;;;4.83;3.10;;;;;;;;;;4994905;28;20210;-82
2022/10/02 10:52:44;;;;;;;4.43;1.57;;;;;;;;;;4995671;28;20469;-83
2022/10/02 10:55:29;;;;;;;2.97;2.77;;;;;;;;;;4994835;28;20226;-83
2022/10/02 10:58:20;;;;;;;3.23;1.73;;;;;;;;;;4994353;28;20175;-83
2022/10/02 11:00:52;;;;;;;1.87;1.40;;;;;;;;;;4992401;28;20673;-82
2022/10/02 11:03:21;;;;;;;2.07;1.60;;;;;;;;;;4993632;28;20230;-82
2022/10/02 11:06:06;;;;;;;2.10;1.30;;;;;;;;;;4993870;28;20180;-82
2022/10/02 11:08:34;;;;;;;1.83;1.30;;;;;;;;;;4995812;28;20635;-82
2022/10/02 11:11:17;;;;;;;1.50;1.20;;;;;;;;;;4993939;28;20248;-83
2022/10/02 11:13:58;;;;;;;2.97;1.80;;;;;;;;;;4994046;28;20750;-83
2022/10/02 11:16:34;;;;;;;1.90;1.70;;;;;;;;;;4994240;28;20544;-83
2022/10/02 11:19:06;;;;;;;4.77;2.03;;;;;;;;;;4994100;28;20171;-83
2022/10/02 11:21:40;;;;;;;3.37;2.37;;;;;;;;;;4993949;28;20603;-82
2022/10/02 11:24:09;;;;;;;2.27;1.80;;;;;;;;;;4993812;28;20195;-83
2022/10/02 11:26:54;;;;;;;2.50;2.00;;;;;;;;;;4993420;28;20191;-83
2022/10/02 11:29:29;;;;;;;2.10;1.80;;;;;;;;;;4993893;28;20186;-84
2022/10/02 11:32:13;;;;;;;2.63;2.37;;;;;;;;;;4994662;28;20195;-83
2022/10/02 11:34:41;;;;;;;2.63;1.53;;;;;;;;;;4993943;28;20175;-83
2022/10/02 11:37:13;;;;;;;1.87;1.60;;;;;;;;;;4992011;28;20211;-83
2022/10/02 11:39:45;;;;;;;2.60;1.73;;;;;;;;;;4993255;28;20172;-83
2022/10/02 11:42:21;;;;;;;3.57;2.57;;;;;;;;;;4993256;28;20208;-82
2022/10/02 11:45:04;;;;;;;2.53;2.23;;;;;;;;;;4988970;28;20206;-83
2022/10/02 11:47:39;;;;;;;5.33;3.60;;;;;;;;;;4993571;28;20186;-82
2022/10/02 11:50:23;;;;;;;4.53;3.60;;;;;;;;;;4994137;28;20187;-82
2022/10/02 11:52:52;;;;;;;4.97;3.47;;;;;;;;;;4993073;28;20214;-83
2022/10/02 11:55:20;;;;;;;3.03;2.00;;;;;;;;;;4993431;28;20638;-83
2022/10/02 11:57:56;;;;;;;3.80;2.70;;;;;;;;;;4993701;28;20643;-83
2022/10/02 12:00:44;;;;;;;3.30;2.67;;;;;;;;;;4993472;28;20175;-82
2022/10/02 12:03:25;;;;;;;5.57;3.53;;;;;;;;;;4989769;28;20310;-82
2022/10/02 12:06:12;;;;;;;2.33;2.00;;;;;;;;;;4993451;28;20211;-83
2022/10/02 12:08:47;;;;;;;3.77;1.93;;;;;;;;;;4993652;28;20187;-82
2022/10/02 12:11:25;;;;;;;3.17;1.90;;;;;;;;;;4994596;28;20255;-82
2022/10/02 12:13:58;;;;;;;6.90;4.47;;;;;;;;;;4993230;28;20684;-82
2022/10/02 12:16:27;;;;;;;4.27;2.37;;;;;;;;;;4993448;28;20176;-83
2022/10/02 12:18:53;;;;;;;3.23;1.97;;;;;;;;;;4993500;28;20172;-82
2022/10/02 12:26:57;;;;;;;4.40;2.00;;;;;;;;;;4994766;28;20190;-82
2022/10/02 12:29:42;;;;;;;2.70;2.13;;;;;;;;;;4993146;28;20176;-82
2022/10/02 12:32:27;;;;;;;3.20;2.30;;;;;;;;;;4992766;28;20211;-82
2022/10/02 12:35:06;;;;;;;6.10;4.07;;;;;;;;;;4993110;28;20642;-83
2022/10/02 12:37:45;;;;;;;4.53;3.37;;;;;;;;;;4992054;28;20183;-82
2022/10/02 12:40:30;;;;;;;6.60;3.00;;;;;;;;;;4987892;28;20338;-82
2022/10/02 12:43:11;;;;;;;4.87;2.33;;;;;;;;;;4992366;28;20210;-82
2022/10/02 12:45:43;;;;;;;4.53;2.40;;;;;;;;;;4992908;28;20658;-82
2022/10/02 12:48:27;;;;;;;5.07;2.20;;;;;;;;;;4993011;28;20190;-82
2022/10/02 12:50:53;;;;;;;4.10;2.80;;;;;;;;;;4992883;28;20210;-82
2022/10/02 12:53:28;;;;;;;4.57;2.40;;;;;;;;;;4993771;28;20659;-83
2022/10/02 12:56:06;;;;;;;3.53;2.40;;;;;;;;;;4988404;28;20172;-82
2022/10/02 12:58:39;;;;;;;2.87;2.60;;;;;;;;;;4992825;28;20184;-82
2022/10/02 13:01:18;;;;;;;6.27;4.03;;;;;;;;;;4992859;28;20262;-82
2022/10/02 13:03:54;;;;;;;4.00;2.00;;;;;;;;;;4992470;28;20238;-82
2022/10/02 13:06:39;;;;;;;2.70;2.00;;;;;;;;;;4992854;28;20269;-82
2022/10/02 13:09:24;;;;;;;2.87;2.10;;;;;;;;;;4992759;28;20237;-82
2022/10/02 13:12:09;;;;;;;4.97;2.60;;;;;;;;;;4996118;28;20661;-83
2022/10/02 13:14:35;;;;;;;2.57;2.00;;;;;;;;;;4992881;28;20207;-82
2022/10/02 13:17:19;;;;;;;3.37;2.20;;;;;;;;;;4995177;28;20537;-82
2022/10/02 13:19:48;;;;;;;2.70;2.20;;;;;;;;;;4993993;28;20172;-82
2022/10/02 13:22:20;;;;;;;2.40;2.10;;;;;;;;;;4993140;28;20199;-82
2022/10/02 13:24:53;;;;;;;4.03;2.27;;;;;;;;;;4993564;28;20187;-82
2022/10/02 13:27:38;;;;;;;2.67;2.20;;;;;;;;;;4995112;28;20167;-82
2022/10/02 13:30:13;;;;;;;5.30;2.43;;;;;;;;;;4993836;28;20235;-83
2022/10/02 13:32:45;;;;;;;2.67;2.03;;;;;;;;;;4992802;28;20234;-81
2022/10/02 13:35:30;;;;;;;5.07;2.60;;;;;;;;;;4994577;28;20227;-82
2022/10/02 13:38:14;;;;;;;3.07;2.40;;;;;;;;;;4994263;28;20180;-81
2022/10/02 13:40:43;;;;;;;3.37;2.47;;;;;;;;;;4994244;28;20238;-82
2022/10/02 13:43:15;;;;;;;3.83;2.10;;;;;;;;;;4993684;28;20254;-82
2022/10/02 13:45:53;;;;;;;6.00;2.50;;;;;;;;;;4994293;28;20182;-82
2022/10/02 13:48:23;;;;;;;3.83;2.40;;;;;;;;;;4995067;28;20299;-82
2022/10/02 13:53:58;;;;;;;3.77;2.03;;;;;;;;;;4999261;28;20225;-81
2022/10/02 13:56:43;;;;;;;3.93;2.60;;;;;;;;;;4998249;28;20176;-81
2022/10/02 13:59:35;;;;;;;3.47;2.27;;;;;;;;;;4997711;28;20187;-82
2022/10/02 14:02:20;;;;;;;4.13;3.03;;;;;;;;;;4997766;28;20674;-83
2022/10/02 14:04:57;;;;;;;4.20;2.37;;;;;;;;;;4997525;28;20183;-84
2022/10/02 14:07:26;;;;;;;3.97;2.33;;;;;;;;;;4996020;28;20638;-82
2022/10/02 14:09:58;;;;;;;3.77;2.20;;;;;;;;;;4996480;28;20219;-82
2022/10/02 14:12:30;;;;;;;4.20;2.30;;;;;;;;;;4996608;28;20246;-82
2022/10/02 14:15:07;;;;;;;3.27;2.30;;;;;;;;;;4996699;28;20533;-82
2022/10/02 14:17:42;;;;;;;4.77;2.57;;;;;;;;;;4996908;28;20164;-82
2022/10/02 14:20:27;;;;;;;4.33;2.10;;;;;;;;;;4996790;28;20171;-82
2022/10/02 14:22:59;;;;;;;4.60;2.43;;;;;;;;;;4996611;28;20243;-82
2022/10/02 14:25:25;;;;;;;6.33;2.63;;;;;;;;;;4994702;28;20195;-82
2022/10/02 14:27:54;;;;;;;5.70;3.10;;;;;;;;;;4996285;28;20642;-82
2022/10/02 14:30:22;;;;;;;6.33;3.60;;;;;;;;;;4996355;28;20351;-82
2022/10/02 14:33:00;;;;;;;4.97;2.90;;;;;;;;;;4979824;28;20212;-82
2022/10/02 14:35:32;;;;;;;3.80;2.60;;;;;;;;;;4996186;28;20669;-82
2022/10/02 14:38:08;;;;;;;4.83;2.60;;;;;;;;;;4996455;28;20696;-82
2022/10/02 14:40:53;;;;;;;2.83;2.37;;;;;;;;;;4996029;28;20205;-81
2022/10/02 14:43:25;;;;;;;5.13;2.67;;;;;;;;;;4995876;28;20204;-82
2022/10/02 14:45:51;;;;;;;3.53;2.57;;;;;;;;;;4997911;28;20202;-81
2022/10/02 14:48:28;;;;;;;4.13;2.70;;;;;;;;;;4996720;28;20270;-81
2022/10/02 14:51:14;;;;;;;4.43;2.70;;;;;;;;;;4996114;28;20641;-82
2022/10/02 14:54:06;;;;;;;3.63;2.30;;;;;;;;;;4996016;28;20207;-81
2022/10/02 14:56:39;;;;;;;3.20;2.17;;;;;;;;;;4995261;28;20196;-81
2022/10/02 14:59:08;;;;;;;3.80;2.10;;;;;;;;;;4995691;28;20263;-81
2022/10/02 15:01:41;;;;;;;3.80;2.57;;;;;;;;;;4996331;28;20548;-81
2022/10/02 15:04:10;;;;;;;2.57;2.30;;;;;;;;;;4995813;28;20196;-81
2022/10/02 15:06:45;;;;;;;4.93;2.50;;;;;;;;;;4994592;28;20523;-81
2022/10/02 15:09:23;;;;;;;3.40;2.23;;;;;;;;;;4995805;28;20194;-81
2022/10/02 15:11:55;;;;;;;3.27;2.10;;;;;;;;;;4995259;28;20175;-81
2022/10/02 15:14:27;;;;;;;3.63;2.07;;;;;;;;;;4995785;28;20647;-82
2022/10/02 15:20:01;;;;;;;3.93;1.90;;;;;;;;;;4995030;28;20210;-82
2022/10/02 15:22:30;;;;;;;5.03;3.27;;;;;;;;;;5004825;28;20203;-82
2022/10/02 15:24:57;;;;;;;3.50;2.23;;;;;;;;;;4975963;28;20188;-82
2022/10/02 15:27:28;;;;;;;3.53;2.30;;;;;;;;;;4991703;28;20600;-81
2022/10/02 15:30:11;;;;;;;4.63;2.77;;;;;;;;;;4993234;28;20712;-82
2022/10/02 15:32:58;;;;;;;3.03;2.50;;;;;;;;;;4986791;28;20210;-82
2022/10/02 15:35:42;;;;;;;3.23;2.20;;;;;;;;;;4994938;28;20206;-81
2022/10/02 15:38:11;;;;;;;4.97;2.27;;;;;;;;;;4994957;28;20183;-81
2022/10/02 15:40:43;;;;;;;4.40;2.67;;;;;;;;;;4995556;28;20179;-81
2022/10/02 15:43:15;;;;;;;3.67;2.53;;;;;;;;;;4994760;28;20242;-81
2022/10/02 15:45:49;;;;;;;3.80;2.53;;;;;;;;;;4994820;28;20271;-82
2022/10/02 15:48:15;;;;;;;4.57;2.70;;;;;;;;;;4995668;28;20246;-82
2022/10/02 15:50:57;;;;;;;4.87;3.50;;;;;;;;;;4994497;28;20696;-84
2022/10/02 15:53:27;;;;;;;4.77;2.83;;;;;;;;;;4994875;28;20218;-83
2022/10/02 15:56:13;;;;;;;6.20;3.60;;;;;;;;;;4995074;28;20554;-82
2022/10/02 15:58:58;;;;;;;5.67;2.80;;;;;;;;;;4993949;28;20249;-79
2022/10/02 16:01:30;;;;;;;4.23;2.60;;;;;;;;;;4994085;28;20175;-81
2022/10/02 16:04:16;;;;;;;5.17;2.50;;;;;;;;;;4994462;28;20215;-79
2022/10/02 16:06:52;;;;;;;3.90;2.73;;;;;;;;;;4994213;28;20207;-79
2022/10/02 16:09:31;;;;;;;3.37;2.70;;;;;;;;;;4994573;28;20171;-81
2022/10/02 16:12:03;;;;;;;4.83;3.27;;;;;;;;;;4993300;28;20602;-81
2022/10/02 16:14:41;;;;;;;5.57;3.10;;;;;;;;;;4994439;28;20640;-81
2022/10/02 16:17:23;;;;;;;4.67;2.90;;;;;;;;;;4994383;28;20231;-79
2022/10/02 16:20:02;;;;;;;5.27;2.57;;;;;;;;;;4993927;28;20174;-80
2022/10/02 16:22:51;;;;;;;3.63;2.63;;;;;;;;;;4993584;28;20195;-81
2022/10/02 16:25:35;;;;;;;4.53;2.77;;;;;;;;;;4994037;28;20619;-80
2022/10/02 16:28:09;;;;;;;6.33;2.80;;;;;;;;;;4994042;28;20527;-79
2022/10/02 16:30:58;;;;;;;5.70;2.83;;;;;;;;;;4993614;28;20171;-82
2022/10/02 16:33:39;;;;;;;4.40;2.90;;;;;;;;;;4993579;28;20261;-81
2022/10/02 16:36:31;;;;;;;4.80;2.70;;;;;;;;;;4994767;28;20265;-84
2022/10/02 16:39:00;;;;;;;6.67;3.10;;;;;;;;;;4993886;28;20241;-81
2022/10/02 16:41:38;;;;;;;4.03;2.70;;;;;;;;;;4993828;28;20175;-78
2022/10/02 16:44:32;;;;;;;5.73;2.83;;;;;;;;;;4994225;28;20182;-80
2022/10/02 16:47:01;;;;;;;3.73;2.67;;;;;;;;;;4993952;28;20176;-82
2022/10/02 16:49:49;;;;;;;4.67;3.07;;;;;;;;;;4978195;28;20183;-80
2022/10/02 16:52:15;;;;;;;5.07;3.50;;;;;;;;;;4993351;28;20215;-80
2022/10/02 16:55:04;;;;;;;4.03;2.80;;;;;;;;;;4993793;28;20176;-80
2022/10/02 16:57:44;;;;;;;4.37;2.77;;;;;;;;;;4996614;28;20256;-80
2022/10/02 17:00:10;;;;;;;5.27;3.10;;;;;;;;;;4995019;28;20172;-81
2022/10/02 17:02:36;;;;;;;3.27;2.67;;;;;;;;;;4993635;28;20218;-79
2022/10/02 17:05:20;;;;;;;4.80;3.40;;;;;;;;;;4992993;28;20229;-79
2022/10/02 17:07:58;;;;;;;4.77;2.70;;;;;;;;;;4993324;28;20229;-79
2022/10/02 17:10:36;;;;;;;4.37;2.93;;;;;;;;;;4993259;28;20230;-79
2022/10/02 17:13:08;;;;;;;5.50;3.00;;;;;;;;;;4992475;28;20207;-79
2022/10/02 17:15:54;;;;;;;4.50;2.53;;;;;;;;;;4993132;28;20183;-79
2022/10/02 17:18:30;;;;;;;5.33;3.10;;;;;;;;;;4992312;28;20179;-78
2022/10/02 17:21:02;;;;;;;5.67;2.67;;;;;;;;;;4990872;28;20693;-79
2022/10/02 17:23:37;;;;;;;5.93;2.67;;;;;;;;;;4991598;28;20781;-78
2022/10/02 17:26:22;;;;;;;4.17;2.97;;;;;;;;;;4992131;28;20175;-79
2022/10/02 17:29:06;;;;;;;3.93;2.80;;;;;;;;;;4992298;28;20187;-79
2022/10/02 17:31:35;;;;;;;4.27;2.60;;;;;;;;;;4991959;28;20250;-78
2022/10/02 17:34:15;;;;;;;3.33;2.70;;;;;;;;;;4991936;28;20678;-79
2022/10/02 17:36:48;;;;;;;5.13;2.70;;;;;;;;;;4992614;28;20191;-79
2022/10/02 17:39:32;;;;;;;7.60;3.00;;;;;;;;;;4992039;28;20167;-79
2022/10/02 17:42:20;;;;;;;4.37;2.43;;;;;;;;;;4991755;28;20262;-78
2022/10/02 17:44:51;;;;;;;6.50;2.50;;;;;;;;;;4991946;28;20167;-79
2022/10/02 17:47:20;;;;;;;4.20;2.50;;;;;;;;;;4992142;28;20164;-79
2022/10/02 17:50:05;;;;;;;5.23;2.40;;;;;;;;;;4990030;28;20183;-78
2022/10/02 17:58:23;;;;;;;3.40;3.00;;;;;;;;;;4992806;28;20205;-78
2022/10/02 18:00:55;;;;;;;4.70;2.60;;;;;;;;;;4991876;28;20200;-78
2022/10/02 18:03:42;;;;;;;4.07;2.53;;;;;;;;;;4992528;28;20216;-78
2022/10/02 18:06:10;;;;;;;3.77;2.60;;;;;;;;;;4992766;28;20222;-78
2022/10/02 18:08:36;;;;;;;4.30;2.50;;;;;;;;;;4991628;28;20271;-77
2022/10/02 18:11:02;;;;;;;4.30;2.57;;;;;;;;;;4992606;28;20545;-78
2022/10/02 18:13:38;;;;;;;6.13;3.13;;;;;;;;;;4991400;28;20203;-77
2022/10/02 18:16:23;;;;;;;3.97;2.80;;;;;;;;;;4991683;28;20213;-77
2022/10/02 18:18:59;;;;;;;4.67;2.93;;;;;;;;;;4991547;28;20176;-78
2022/10/02 18:21:24;;;;;;;4.27;3.17;;;;;;;;;;4991375;28;20649;-78
2022/10/02 18:23:57;;;;;;;7.27;4.67;;;;;;;;;;4991228;28;20196;-77
2022/10/02 18:26:31;;;;;;;4.47;3.27;;;;;;;;;;4991918;28;20182;-78
2022/10/02 18:29:00;;;;;;;4.33;3.30;;;;;;;;;;4992244;28;20167;-78
2022/10/02 18:31:53;;;;;;;5.70;3.57;;;;;;;;;;4991528;28;20176;-78
2022/10/02 18:34:25;;;;;;;4.60;3.40;;;;;;;;;;4992669;28;20176;-78
2022/10/02 18:37:10;;;;;;;6.00;3.30;;;;;;;;;;4995232;28;20175;-78
2022/10/02 18:39:41;;;;;;;5.30;3.60;;;;;;;;;;4995019;28;20168;-77
2022/10/02 18:42:24;;;;;;;4.53;3.10;;;;;;;;;;4994806;28;20678;-78
2022/10/02 18:45:05;;;;;;;5.00;3.30;;;;;;;;;;4994921;28;20175;-78
2022/10/02 18:47:33;;;;;;;4.93;3.30;;;;;;;;;;4994834;28;20187;-78
2022/10/02 18:53:14;;;;;;;6.80;4.07;;;;;;;;;;4995627;28;20704;-78
2022/10/02 18:55:47;;;;;;;6.90;4.23;;;;;;;;;;4994850;28;20176;-78
2022/10/02 18:58:20;;;;;;;9.23;6.40;;;;;;;;;;4996202;28;20168;-78
2022/10/02 19:01:04;;;;;;;7.07;4.90;;;;;;;;;;4994586;28;20549;-78
2022/10/02 19:03:49;;;;;;;15.10;9.20;;;;;;;;;;4994333;28;20239;-78
2022/10/02 19:06:28;;;;;;;5.67;3.70;;;;;;;;;;4994552;28;20206;-78
2022/10/02 19:09:04;;;;;;;4.97;4.17;;;;;;;;;;4996050;28;20160;-78
2022/10/02 19:11:47;;;;;;;5.73;4.20;;;;;;;;;;4994268;28;20183;-78
2022/10/02 19:14:14;;;;;;;9.70;4.60;;;;;;;;;;4978266;28;20580;-78
2022/10/02 19:16:55;;;;;;;5.33;4.00;;;;;;;;;;4978542;28;20187;-78
2022/10/02 19:19:25;;;;;;;7.43;4.67;;;;;;;;;;4994413;28;20191;-78
2022/10/02 19:22:01;;;;;;;7.33;4.93;;;;;;;;;;4994221;28;20226;-78
2022/10/02 19:24:30;;;;;;;8.30;6.47;;;;;;;;;;4994531;28;20194;-78
2022/10/02 19:26:58;;;;;;;7.40;6.20;;;;;;;;;;4994194;28;20183;-78
2022/10/02 19:29:29;;;;;;;11.20;7.03;;;;;;;;;;4994353;28;20180;-78
2022/10/02 19:31:55;;;;;;;7.60;5.27;;;;;;;;;;4993642;28;20634;-78
2022/10/02 19:34:23;;;;;;;7.77;4.63;;;;;;;;;;4993937;28;20538;-78
2022/10/02 19:36:53;;;;;;;8.77;4.73;;;;;;;;;;4977970;28;20630;-78
2022/10/02 19:39:25;;;;;;;8.93;4.73;;;;;;;;;;4994178;28;20268;-77
2022/10/02 19:41:54;;;;;;;6.70;4.30;;;;;;;;;;4993721;28;20175;-78
2022/10/02 19:44:27;;;;;;;5.80;4.27;;;;;;;;;;4993744;28;20202;-78
2022/10/02 19:46:55;;;;;;;5.87;4.43;;;;;;;;;;4993131;28;20184;-77
2022/10/02 19:52:29;;;;;;;8.50;4.80;;;;;;;;;;4994563;28;20218;-78
2022/10/02 19:54:56;;;;;;;6.57;4.63;;;;;;;;;;4993880;28;20183;-78
2022/10/02 19:57:23;;;;;;;7.70;4.83;;;;;;;;;;4977855;28;20659;-78
2022/10/02 19:59:53;;;;;;;7.30;4.60;;;;;;;;;;4977432;28;20188;-78
2022/10/02 20:02:39;;;;;;;5.67;4.33;;;;;;;;;;5033553;23;20220;-78
2022/10/02 20:05:08;;;;;;;7.13;5.23;;;;;;;;;;4993240;28;20203;-78
2022/10/02 20:07:36;;;;;;;7.73;4.80;;;;;;;;;;4977243;28;20266;-78
2022/10/02 20:10:22;;;;;;;4.70;4.20;;;;;;;;;;4993342;28;20207;-78
2022/10/02 20:12:51;;;;;;;7.07;4.30;;;;;;;;;;4986744;28;20220;-78
2022/10/02 20:17:07;;;;;;;6.87;5.20;;;;;;;;;;4975200;28;20584;-78
2022/10/02 20:18:10;;;;;;;4.63;4.20;;;;;;;;;;4974843;28;20176;-78
2022/10/02 20:20:36;;;;;;;6.43;4.47;;;;;;;;;;4973768;28;20185;-78
2022/10/02 20:23:04;;;;;;;4.93;3.90;;;;;;;;;;4973224;28;20286;-78
2022/10/02 20:25:35;;;;;;;5.50;4.43;;;;;;;;;;4957339;28;20759;-78
2022/10/02 20:28:16;;;;;;;5.30;3.83;;;;;;;;;;4972633;28;20201;-78
2022/10/02 20:30:48;;;;;;;4.90;3.77;;;;;;;;;;4973309;28;20191;-78
2022/10/02 20:33:21;;;;;;;4.73;3.43;;;;;;;;;;4973233;28;20258;-78
2022/10/02 20:36:07;;;;;;;5.40;3.73;;;;;;;;;;4973610;28;20210;-78
2022/10/02 20:38:42;;;;;;;5.60;4.57;;;;;;;;;;4966345;28;20528;-78
2022/10/02 20:41:18;;;;;;;5.20;3.53;;;;;;;;;;4972963;28;20187;-78
2022/10/02 20:43:47;;;;;;;3.97;3.57;;;;;;;;;;4973188;28;20208;-78
2022/10/02 20:46:34;;;;;;;4.43;3.93;;;;;;;;;;4974286;28;20176;-78
2022/10/02 20:49:19;;;;;;;4.93;4.10;;;;;;;;;;4973360;28;20180;-78
2022/10/02 20:52:09;;;;;;;4.43;3.83;;;;;;;;;;4972929;28;20182;-78
2022/10/02 20:54:42;;;;;;;4.20;3.80;;;;;;;;;;4972926;28;20176;-78
2022/10/02 20:57:19;;;;;;;6.17;3.40;;;;;;;;;;4973909;28;20525;-78
2022/10/02 21:00:09;;;;;;;8.87;4.77;;;;;;;;;;4972678;28;20609;-78
2022/10/02 21:02:53;;;;;;;5.53;3.93;;;;;;;;;;4972685;28;20291;-78
2022/10/02 21:05:31;;;;;;;6.80;3.90;;;;;;;;;;4972658;28;20173;-78
2022/10/02 21:07:57;;;;;;;5.20;4.20;;;;;;;;;;4972980;28;20175;-78
2022/10/02 21:10:39;;;;;;;6.30;4.40;;;;;;;;;;4972993;28;20180;-78
2022/10/02 21:13:23;;;;;;;6.00;4.30;;;;;;;;;;4972229;28;20235;-78
2022/10/02 21:16:08;;;;;;;6.03;4.53;;;;;;;;;;4972488;28;20267;-78
2022/10/02 21:18:46;;;;;;;5.60;3.80;;;;;;;;;;4973936;28;20199;-78
2022/10/02 21:21:12;;;;;;;6.40;4.50;;;;;;;;;;4972348;28;20203;-78
2022/10/02 21:23:50;;;;;;;5.03;3.77;;;;;;;;;;4973655;28;20192;-78
2022/10/02 21:26:35;;;;;;;7.10;4.93;;;;;;;;;;4972429;28;20180;-78
2022/10/02 21:29:22;;;;;;;4.80;4.30;;;;;;;;;;4972459;28;20187;-78
2022/10/02 21:32:09;;;;;;;5.17;4.20;;;;;;;;;;4972223;28;20272;-78
2022/10/02 21:35:04;;;;;;;6.27;3.80;;;;;;;;;;4972563;28;20264;-78
2022/10/02 21:37:33;;;;;;;6.57;4.00;;;;;;;;;;4938610;28;20307;-78
2022/10/02 21:40:12;;;;;;;5.07;3.87;;;;;;;;;;4973413;28;20176;-78
2022/10/02 21:43:05;;;;;;;5.40;3.70;;;;;;;;;;4972078;28;20200;-78
2022/10/02 21:45:34;;;;;;;8.90;5.13;;;;;;;;;;4972337;28;20176;-78
2022/10/02 21:48:06;;;;;;;4.40;4.00;;;;;;;;;;4972389;28;20545;-78
2022/10/02 21:50:41;;;;;;;6.27;4.00;;;;;;;;;;4972423;28;20259;-78
2022/10/02 21:53:10;;;;;;;6.50;4.23;;;;;;;;;;4971870;28;20203;-78
2022/10/02 21:56:00;;;;;;;5.40;4.20;;;;;;;;;;4972443;28;20219;-78
2022/10/02 21:58:44;;;;;;;5.07;3.63;;;;;;;;;;4967045;28;20184;-78
2022/10/02 22:01:39;;;;;;;4.90;4.43;;;;;;;;;;4972006;28;20209;-78
2022/10/02 22:04:24;;;;;;;6.20;3.97;;;;;;;;;;4972247;28;20219;-78
2022/10/02 22:07:02;;;;;;;4.80;4.30;;;;;;;;;;4972022;28;20183;-78
2022/10/02 22:09:28;;;;;;;3.77;3.47;;;;;;;;;;4973218;28;20184;-78
2022/10/02 22:12:09;;;;;;;5.83;4.13;;;;;;;;;;4975736;28;20179;-78
2022/10/02 22:14:40;;;;;;;5.67;4.63;;;;;;;;;;4975987;28;20183;-78
2022/10/02 22:17:44;;;;;;;6.73;3.97;;;;;;;;;;4959964;28;20596;-78
2022/10/02 22:20:19;;;;;;;5.10;3.40;;;;;;;;;;4939045;29;20217;-78
2022/10/02 22:23:04;;;;;;;5.23;3.80;;;;;;;;;;4939049;29;20200;-78
2022/10/02 22:25:45;;;;;;;7.07;4.50;;;;;;;;;;4962170;28;20199;-78
2022/10/02 22:28:11;;;;;;;5.13;4.50;;;;;;;;;;4975799;28;20222;-78
2022/10/02 22:31:00;;;;;;;5.17;4.10;;;;;;;;;;4975472;28;20279;-78
2022/10/02 22:33:35;;;;;;;6.03;4.23;;;;;;;;;;4975086;28;20247;-78
2022/10/02 22:36:10;;;;;;;4.43;3.90;;;;;;;;;;4975516;28;20176;-78
2022/10/02 22:38:39;;;;;;;8.53;3.63;;;;;;;;;;4975418;28;20206;-78
2022/10/02 22:41:19;;;;;;;4.60;3.60;;;;;;;;;;4959130;28;20177;-78
2022/10/02 22:43:48;;;;;;;5.83;4.07;;;;;;;;;;4975275;28;20204;-78
2022/10/02 22:46:26;;;;;;;6.37;4.50;;;;;;;;;;4975112;28;20180;-78
2022/10/02 22:49:02;;;;;;;6.10;4.50;;;;;;;;;;4975231;28;20186;-78
2022/10/02 22:51:34;;;;;;;5.50;4.00;;;;;;;;;;4974832;28;20211;-78
2022/10/02 22:54:10;;;;;;;6.90;4.43;;;;;;;;;;4975152;28;20219;-78
2022/10/02 22:56:42;;;;;;;5.37;3.90;;;;;;;;;;4975243;28;20179;-78
2022/10/02 22:59:11;;;;;;;4.27;3.50;;;;;;;;;;4975047;28;20739;-78
2022/10/02 23:01:43;;;;;;;5.27;3.67;;;;;;;;;;4974880;28;20630;-78
2022/10/02 23:04:20;;;;;;;7.77;4.03;;;;;;;;;;4976261;28;20215;-78
2022/10/02 23:06:50;;;;;;;4.93;3.80;;;;;;;;;;4975338;28;20282;-78
2022/10/02 23:09:18;;;;;;;5.27;3.50;;;;;;;;;;4975130;28;20192;-78
2022/10/02 23:11:54;;;;;;;6.77;4.20;;;;;;;;;;4974719;28;20181;-78
2022/10/02 23:14:24;;;;;;;4.80;4.13;;;;;;;;;;4974758;28;20634;-78
2022/10/02 23:17:10;;;;;;;5.43;4.23;;;;;;;;;;4976126;28;20222;-78
2022/10/02 23:19:37;;;;;;;5.87;4.20;;;;;;;;;;4974867;28;20187;-78
2022/10/02 23:22:07;;;;;;;6.60;3.93;;;;;;;;;;4973316;28;20175;-78
2022/10/02 23:24:37;;;;;;;5.27;3.50;;;;;;;;;;4974395;28;20179;-78
2022/10/02 23:27:10;;;;;;;5.10;4.07;;;;;;;;;;4974932;28;20193;-78
2022/10/02 23:29:46;;;;;;;7.57;4.03;;;;;;;;;;4974875;28;20203;-78
2022/10/02 23:32:32;;;;;;;4.37;3.97;;;;;;;;;;4974108;28;20245;-78
2022/10/02 23:35:15;;;;;;;5.37;4.17;;;;;;;;;;4974483;28;20191;-78
2022/10/02 23:37:41;;;;;;;7.97;4.47;;;;;;;;;;4975589;28;20615;-78
2022/10/02 23:40:14;;;;;;;7.20;4.63;;;;;;;;;;4974145;28;20274;-78
2022/10/02 23:42:47;;;;;;;6.03;3.90;;;;;;;;;;4974130;28;20210;-78
2022/10/02 23:45:26;;;;;;;6.07;4.20;;;;;;;;;;4974158;28;20189;-78
2022/10/02 23:47:57;;;;;;;5.90;3.77;;;;;;;;;;4974265;28;20192;-78
2022/10/02 23:50:23;;;;;;;6.63;3.57;;;;;;;;;;4974049;28;20183;-78
2022/10/02 23:52:57;;;;;;;3.73;3.43;;;;;;;;;;4974086;28;20226;-78